OPSK

Details ICAO OPSK (SKZ)
Name SUKKUR
Region Pakistan
Timezone Asia/Karachi (UTC+5.0)
Plans Departing 1
Arriving 3
Stats Elevation 196 ft / 60 m (AMSL)
Location 27.721988° 68.791685°
Runways 1
Magnetic Variation 1.535° E
Sunrise 2017-12-14 02:08:43 UTC / 2017-12-14 07:08:43 Local
Sunset 2017-12-14 12:32:56 UTC / 2017-12-14 17:32:56 Local
Advertisement - Login to hide

Runways

ID Width Length Bearing (true) Bearing (mag) Surface Threshold Offset Overrun Length
14 98 ft / 30 m 9,025 ft / 2,751 m 140.60° 139.06° Asphalt 0 ft / 0 m 900 ft / 274 m
32 98 ft / 30 m 9,025 ft / 2,751 m 320.61° 319.07° Asphalt 0 ft / 0 m 900 ft / 274 m

Map

Weather


0- 5 10 15 20 25 30 35+ Temperature / ° C

Clouds and Precipitation
Forecast for 2017-12-14 00:00 UTC. Updated an hour ago

Ground ~20,000 ft ~40,000 ft Winds

METAR

OPSK 132100Z 05004KT 2000 HZ NSC 12/11 Q1016 TEMPO 1500 BR

TAF

Not found

Frequencies

Ground 121.80 MHz TWR
Tower 122.50 MHz TWR
Warning: Do not use this data for real-world aviation or navigation. No guarantee of current accuracy is given.